createdAt,value
2018-05-13T00:00:35.429Z,38.35
2018-05-13T00:01:38.424Z,38.63
2018-05-13T00:02:40.933Z,37.60
2018-05-13T00:03:43.431Z,38.05
2018-05-13T00:04:45.934Z,38.25
2018-05-13T00:05:48.684Z,38.17
2018-05-13T00:06:51.190Z,38.70
2018-05-13T00:07:53.693Z,39.40
2018-05-13T00:08:56.956Z,36.83
2018-05-13T00:09:59.477Z,38.58
2018-05-13T00:11:01.982Z,40.63
2018-05-13T00:12:04.477Z,37.22
2018-05-13T00:13:06.985Z,37.95
2018-05-13T00:14:09.512Z,37.50
2018-05-13T00:15:12.054Z,38.45
2018-05-13T00:16:14.739Z,36.55
2018-05-13T00:17:17.257Z,39.35
2018-05-13T00:18:20.520Z,36.67
2018-05-13T00:19:23.020Z,36.60
2018-05-13T00:20:25.536Z,37.38
2018-05-13T00:21:28.053Z,37.67
2018-05-13T00:22:31.314Z,38.05
2018-05-13T00:23:33.838Z,37.63
2018-05-13T00:24:36.335Z,37.50
2018-05-13T00:25:38.874Z,37.05
2018-05-13T00:26:41.397Z,37.25
2018-05-13T00:27:43.905Z,38.00
2018-05-13T00:28:46.408Z,38.60
2018-05-13T00:29:48.905Z,37.47
2018-05-13T00:30:51.480Z,37.22
2018-05-13T00:31:53.983Z,36.40
2018-05-13T00:32:57.263Z,37.38
2018-05-13T00:34:00.540Z,36.55
2018-05-13T00:35:03.861Z,36.05
2018-05-13T00:36:06.430Z,37.22
2018-05-13T00:37:08.955Z,35.38
2018-05-13T00:38:11.480Z,35.78
2018-05-13T00:39:13.970Z,36.00
2018-05-13T00:40:16.484Z,35.13
2018-05-13T00:41:19.007Z,36.22
2018-05-13T00:42:21.525Z,37.00
2018-05-13T00:43:24.806Z,37.20
2018-05-13T00:44:27.368Z,37.35
2018-05-13T00:45:29.952Z,36.35
2018-05-13T00:46:32.472Z,36.47
2018-05-13T00:47:35.008Z,38.03
2018-05-13T00:48:38.277Z,34.90
2018-05-13T00:49:40.785Z,35.92
2018-05-13T00:50:43.381Z,35.83
2018-05-13T00:51:45.903Z,37.58
2018-05-13T00:52:49.186Z,35.90
2018-05-13T00:53:51.684Z,36.65
2018-05-13T00:54:56.048Z,34.78
2018-05-13T00:55:58.555Z,36.40
2018-05-13T00:57:01.832Z,37.92
2018-05-13T00:58:05.136Z,36.83
2018-05-13T00:59:08.405Z,38.25
2018-05-13T01:00:12.413Z,35.00
2018-05-13T01:01:15.667Z,37.35
2018-05-13T01:02:18.179Z,40.05
2018-05-13T01:03:21.445Z,38.30
2018-05-13T01:04:23.951Z,36.42
2018-05-13T01:05:26.476Z,34.78
2018-05-13T01:06:28.975Z,36.15
2018-05-13T01:07:32.248Z,34.30
2018-05-13T01:08:34.741Z,37.13
2018-05-13T01:09:38.009Z,37.08
2018-05-13T01:10:40.550Z,37.38
2018-05-13T01:11:43.079Z,37.40
2018-05-13T01:12:45.604Z,37.05
2018-05-13T01:13:48.108Z,37.10
2018-05-13T01:14:51.366Z,39.72
2018-05-13T01:15:53.865Z,35.83
2018-05-13T01:16:57.128Z,35.35
2018-05-13T01:17:59.749Z,39.10
2018-05-13T01:19:02.248Z,36.13
2018-05-13T01:20:04.741Z,38.00
2018-05-13T01:21:07.252Z,36.90
2018-05-13T01:22:10.523Z,39.15
2018-05-13T01:23:13.842Z,38.47
2018-05-13T01:24:16.345Z,38.28
2018-05-13T01:25:18.874Z,38.20
2018-05-13T01:26:21.369Z,36.00
2018-05-13T01:27:23.864Z,36.88
2018-05-13T01:28:26.408Z,37.90
2018-05-13T01:29:28.930Z,37.33
2018-05-13T01:30:31.440Z,39.33
2018-05-13T01:31:33.946Z,39.10
2018-05-13T01:32:36.446Z,38.35
2018-05-13T01:33:39.711Z,37.63
2018-05-13T01:34:42.218Z,38.20
2018-05-13T01:35:44.749Z,38.70
2018-05-13T01:36:48.034Z,38.78
2018-05-13T01:37:50.533Z,37.40
2018-05-13T01:38:53.812Z,39.92
2018-05-13T01:39:57.089Z,40.25
2018-05-13T01:40:59.600Z,37.22
2018-05-13T01:42:02.107Z,38.50
2018-05-13T01:43:04.632Z,38.17
2018-05-13T01:44:07.907Z,39.03
2018-05-13T01:45:11.201Z,39.85
2018-05-13T01:46:14.473Z,37.97
2018-05-13T01:47:16.982Z,39.90
2018-05-13T01:48:19.491Z,36.20
2018-05-13T01:49:21.994Z,37.72
2018-05-13T01:50:25.268Z,38.80
2018-05-13T01:51:27.784Z,39.47
2018-05-13T01:52:30.293Z,37.85
2018-05-13T01:53:32.829Z,37.47
2018-05-13T01:54:35.318Z,37.38
2018-05-13T01:55:37.829Z,38.53
2018-05-13T01:56:40.325Z,39.08
2018-05-13T01:57:42.860Z,37.35
2018-05-13T01:58:45.413Z,38.25
2018-05-13T01:59:47.897Z,38.10
2018-05-13T02:00:50.380Z,37.05
2018-05-13T02:01:52.995Z,37.45
2018-05-13T02:02:55.495Z,37.92
2018-05-13T02:03:58.012Z,38.15
2018-05-13T02:05:01.298Z,39.17
2018-05-13T02:06:04.566Z,37.90
2018-05-13T02:07:07.067Z,38.13
2018-05-13T02:08:10.382Z,37.00
2018-05-13T02:09:12.927Z,39.80
2018-05-13T02:10:15.465Z,38.75
2018-05-13T02:11:17.977Z,37.95
2018-05-13T02:12:20.475Z,38.08
2018-05-13T02:13:22.981Z,38.50
2018-05-13T02:14:26.270Z,37.22
2018-05-13T02:15:28.796Z,39.03
2018-05-13T02:16:31.302Z,39.05
2018-05-13T02:17:33.817Z,36.63
2018-05-13T02:18:36.325Z,35.95
2018-05-13T02:19:38.837Z,38.80
2018-05-13T02:20:42.141Z,37.60
2018-05-13T02:21:44.628Z,36.55
2018-05-13T02:22:47.122Z,38.88
2018-05-13T02:23:49.621Z,36.17
2018-05-13T02:24:52.134Z,40.10
2018-05-13T02:25:54.630Z,36.85
2018-05-13T02:26:57.127Z,38.65
2018-05-13T02:27:59.618Z,36.90
2018-05-13T02:29:02.887Z,38.25
2018-05-13T02:30:05.418Z,38.88
2018-05-13T02:31:07.951Z,36.60
2018-05-13T02:32:11.280Z,38.22
2018-05-13T02:33:13.771Z,38.92
2018-05-13T02:34:16.265Z,36.92
2018-05-13T02:35:19.554Z,35.80
2018-05-13T02:36:22.828Z,38.45
2018-05-13T02:37:25.333Z,38.58
2018-05-13T02:38:27.846Z,38.92
2018-05-13T02:39:30.356Z,37.30
2018-05-13T02:40:33.636Z,39.33
2018-05-13T02:41:36.126Z,40.10
2018-05-13T02:42:39.417Z,36.10
2018-05-13T02:43:42.693Z,37.30
2018-05-13T02:44:45.971Z,38.67
2018-05-13T02:45:48.520Z,37.60
2018-05-13T02:46:51.025Z,36.83
2018-05-13T02:47:54.344Z,37.53
2018-05-13T02:48:57.574Z,37.00
2018-05-13T02:50:00.082Z,34.80
2018-05-13T02:51:02.592Z,35.65
2018-05-13T02:52:05.089Z,34.60
2018-05-13T02:53:07.622Z,37.00
2018-05-13T02:54:10.122Z,37.42
2018-05-13T02:55:12.635Z,38.60
2018-05-13T02:56:15.913Z,39.85
2018-05-13T02:57:19.172Z,40.38
2018-05-13T02:58:21.660Z,40.60
2018-05-13T02:59:24.161Z,43.95
2018-05-13T03:00:26.671Z,45.80
2018-05-13T03:01:29.201Z,45.33
2018-05-13T03:02:31.701Z,45.75
2018-05-13T03:03:34.202Z,44.58
2018-05-13T03:04:36.691Z,46.30
2018-05-13T03:05:39.978Z,44.80
2018-05-13T03:06:43.260Z,47.62
2018-05-13T03:07:46.518Z,47.30
2018-05-13T03:08:48.998Z,48.40
2018-05-13T03:09:51.500Z,48.42
2018-05-13T03:10:54.789Z,45.03
2018-05-13T03:11:58.044Z,49.90
2018-05-13T03:13:00.545Z,45.15
2018-05-13T03:14:03.808Z,46.45
2018-05-13T03:15:06.299Z,46.78
2018-05-13T03:16:08.827Z,46.42
2018-05-13T03:17:11.361Z,46.00
2018-05-13T03:18:14.621Z,46.10
2018-05-13T03:19:17.132Z,45.85
2018-05-13T03:20:19.641Z,50.72
2018-05-13T03:21:22.138Z,48.53
2018-05-13T03:22:24.646Z,48.70
2018-05-13T03:23:27.145Z,45.33
2018-05-13T03:24:29.643Z,45.38
2018-05-13T03:25:32.165Z,45.58
2018-05-13T03:26:34.667Z,44.45
2018-05-13T03:27:37.186Z,44.95
2018-05-13T03:28:39.694Z,42.38
2018-05-13T03:29:42.195Z,44.35
2018-05-13T03:30:44.719Z,43.58
2018-05-13T03:31:47.218Z,46.47
2018-05-13T03:32:49.749Z,43.67
2018-05-13T03:33:52.248Z,42.75
2018-05-13T03:34:54.752Z,42.72
2018-05-13T03:35:57.264Z,41.00
2018-05-13T03:36:59.763Z,43.22
2018-05-13T03:38:02.274Z,39.85
2018-05-13T07:21:46.415Z,18.67
2018-05-13T07:22:50.008Z,19.67
2018-05-13T07:23:53.279Z,19.30
2018-05-13T07:24:55.781Z,19.33
2018-05-13T07:25:59.067Z,19.10
2018-05-13T07:27:01.601Z,19.20
2018-05-13T07:28:04.122Z,19.67
2018-05-13T07:29:06.648Z,21.03
2018-05-13T07:30:09.159Z,20.17
2018-05-13T07:31:11.691Z,19.87
2018-05-13T07:32:14.266Z,18.80
2018-05-13T07:33:16.763Z,20.17
2018-05-13T07:34:19.274Z,20.20
2018-05-13T07:35:21.778Z,19.40
2018-05-13T07:36:24.289Z,18.27
2018-05-13T07:37:27.569Z,19.77
2018-05-13T07:38:30.865Z,17.90
2018-05-13T07:39:34.128Z,18.60
2018-05-13T07:40:36.632Z,17.70
2018-05-13T07:41:39.893Z,19.67
2018-05-13T07:42:43.905Z,20.07
2018-05-13T07:43:46.404Z,18.70
2018-05-13T07:44:49.659Z,18.27
2018-05-13T07:45:52.177Z,17.10
2018-05-13T07:46:54.685Z,17.80
2018-05-13T07:47:57.213Z,19.07
2018-05-13T07:48:59.712Z,18.23
2018-05-13T07:50:02.231Z,19.03
2018-05-13T07:51:05.514Z,18.90
2018-05-13T07:52:08.784Z,17.83
2018-05-13T07:53:11.390Z,19.47
2018-05-13T07:54:14.699Z,20.40
2018-05-13T07:55:17.210Z,17.93
2018-05-13T07:56:19.728Z,18.03
2018-05-13T07:57:22.230Z,19.07
2018-05-13T07:58:24.750Z,18.20
2018-05-13T07:59:27.266Z,18.73
2018-05-13T08:00:29.821Z,18.00
2018-05-13T08:01:32.321Z,18.40
2018-05-13T08:02:34.834Z,19.00
2018-05-13T08:03:38.149Z,18.73
2018-05-13T08:04:40.683Z,19.20
2018-05-13T08:05:43.200Z,18.90
2018-05-13T08:06:45.747Z,19.50
2018-05-13T08:07:49.043Z,19.00
2018-05-13T08:08:51.616Z,18.20
2018-05-13T08:09:54.135Z,19.97
2018-05-13T08:10:56.670Z,21.20
2018-05-13T08:11:59.196Z,18.47
2018-05-13T08:13:01.694Z,20.40
2018-05-13T08:14:04.269Z,20.00
2018-05-13T08:15:07.515Z,21.27
2018-05-13T08:16:10.059Z,20.53
2018-05-13T08:17:13.373Z,21.17
2018-05-13T08:18:15.884Z,21.40
2018-05-13T08:19:18.415Z,21.97
2018-05-13T08:20:21.048Z,21.47
2018-05-13T08:21:23.466Z,21.27
2018-05-13T08:22:25.982Z,22.00
2018-05-13T08:23:28.511Z,21.57
2018-05-13T08:24:31.835Z,21.20
2018-05-13T08:25:34.339Z,21.60
2018-05-13T08:26:36.863Z,20.30
2018-05-13T08:27:39.377Z,21.20
2018-05-13T08:28:41.885Z,20.90
2018-05-13T08:29:44.406Z,19.93
2018-05-13T08:30:46.927Z,21.57
2018-05-13T08:31:49.439Z,20.10
2018-05-13T08:32:51.972Z,22.80
2018-05-13T08:33:55.232Z,21.77
2018-05-13T08:34:57.811Z,21.33
2018-05-13T08:36:00.335Z,22.40
2018-05-13T08:37:02.877Z,21.60
2018-05-13T08:38:06.167Z,20.63
2018-05-13T08:39:09.448Z,20.80
2018-05-13T08:40:12.738Z,20.90
2018-05-13T08:41:16.030Z,21.13
2018-05-13T08:42:19.340Z,22.00
2018-05-13T08:43:21.853Z,21.97
2018-05-13T08:44:24.395Z,21.67
2018-05-13T08:45:27.064Z,20.63
2018-05-13T08:46:29.592Z,21.10
2018-05-13T08:47:32.113Z,19.90
2018-05-13T08:48:34.711Z,21.73
2018-05-13T08:49:37.915Z,23.10
2018-05-13T08:50:40.436Z,22.20
2018-05-13T08:51:42.946Z,23.87
2018-05-13T08:52:45.481Z,24.20
2018-05-13T08:53:48.001Z,24.30
2018-05-13T08:54:50.521Z,23.53
2018-05-13T08:55:53.023Z,23.97
2018-05-13T08:56:55.516Z,24.10
2018-05-13T08:57:58.034Z,23.07
2018-05-13T08:59:00.556Z,24.33
2018-05-13T09:00:03.166Z,21.73
2018-05-13T09:01:05.697Z,23.27
2018-05-13T09:02:08.305Z,24.50
2018-05-13T09:03:10.874Z,25.07
2018-05-13T09:04:13.408Z,24.03
2018-05-13T09:05:15.940Z,24.13
2018-05-13T09:06:18.524Z,24.50
2018-05-13T09:07:21.161Z,24.60
2018-05-13T09:08:23.758Z,25.80
2018-05-13T09:09:27.015Z,24.80
2018-05-13T09:10:29.528Z,24.40
2018-05-13T09:11:32.046Z,26.03
2018-05-13T09:12:35.326Z,23.83
2018-05-13T09:13:38.599Z,25.13
2018-05-13T09:14:41.124Z,25.37
2018-05-13T09:15:43.690Z,24.07
2018-05-13T09:16:46.230Z,24.77
2018-05-13T09:17:49.518Z,27.00
2018-05-13T09:18:52.801Z,25.83
2018-05-13T09:19:56.120Z,24.33
2018-05-13T09:20:58.680Z,26.00
2018-05-13T09:22:01.182Z,25.40
2018-05-13T09:23:03.708Z,23.80
2018-05-13T09:24:06.991Z,24.50
2018-05-13T09:25:09.511Z,24.80
2018-05-13T09:26:12.074Z,23.07
2018-05-13T09:27:14.610Z,22.47
2018-05-13T09:28:17.893Z,24.87
2018-05-13T09:29:20.401Z,22.87
2018-05-13T09:30:22.938Z,23.50
2018-05-13T09:31:26.219Z,24.27
2018-05-13T09:32:28.755Z,24.10
2018-05-13T09:33:31.400Z,22.60
2018-05-13T09:34:33.917Z,23.10
2018-05-13T09:35:36.463Z,24.30
2018-05-13T09:36:38.988Z,23.17
2018-05-13T09:37:42.274Z,23.90
2018-05-13T09:38:45.557Z,23.10
2018-05-13T09:39:48.850Z,23.60
2018-05-13T09:40:52.132Z,23.93
2018-05-13T09:41:54.633Z,23.83
2018-05-13T09:42:57.196Z,21.40
2018-05-13T09:43:59.709Z,20.80
2018-05-13T09:45:02.208Z,23.07
2018-05-13T09:46:06.239Z,21.80
2018-05-13T09:47:09.645Z,24.30
2018-05-13T09:48:12.179Z,24.07
2018-05-13T09:49:14.708Z,23.43
2018-05-13T09:50:17.221Z,25.20
2018-05-13T09:51:19.823Z,23.23
2018-05-13T09:53:50.571Z,23.10
2018-05-13T09:54:53.090Z,23.17
2018-05-13T09:55:55.617Z,23.17
2018-05-13T09:56:58.149Z,22.27
2018-05-13T09:58:01.444Z,23.33
2018-05-13T09:59:04.772Z,22.97
2018-05-13T10:00:07.336Z,22.37
2018-05-13T10:01:10.471Z,22.53
2018-05-13T10:02:13.006Z,21.60
2018-05-13T10:03:15.563Z,23.10
2018-05-13T10:04:18.086Z,23.47
2018-05-13T10:05:20.625Z,23.13
2018-05-13T10:06:23.173Z,23.43
2018-05-13T10:07:25.716Z,24.27
2018-05-13T10:08:29.045Z,22.80
2018-05-13T10:09:31.672Z,22.10
2018-05-13T10:10:34.149Z,21.87
2018-05-13T10:11:37.437Z,22.03
2018-05-13T10:12:40.723Z,24.10
2018-05-13T10:13:43.259Z,22.60
2018-05-13T10:14:45.802Z,24.20
2018-05-13T10:15:48.341Z,23.67
2018-05-13T10:16:51.629Z,25.10
2018-05-13T10:17:54.919Z,25.13
2018-05-13T10:18:58.225Z,22.77
2018-05-13T10:20:00.814Z,23.37
2018-05-13T10:21:03.379Z,25.53
2018-05-13T10:22:05.950Z,24.60
2018-05-13T10:23:08.474Z,24.93
2018-05-13T10:24:11.054Z,25.17
2018-05-13T10:25:13.613Z,22.83
2018-05-13T10:26:16.906Z,22.47
2018-05-13T10:27:20.955Z,23.60
2018-05-13T10:28:24.239Z,22.30
2018-05-13T10:29:26.776Z,22.93
2018-05-13T10:30:29.282Z,22.40
2018-05-13T10:31:31.830Z,22.30
2018-05-13T10:32:34.369Z,22.10
2018-05-13T10:33:36.897Z,23.10
2018-05-13T10:34:40.213Z,20.83
2018-05-13T10:35:42.736Z,20.60
2018-05-13T10:36:46.018Z,20.33
2018-05-13T10:37:48.537Z,21.90
2018-05-13T10:38:51.045Z,22.17
2018-05-13T10:39:55.088Z,22.67
2018-05-13T10:40:57.630Z,23.87
2018-05-13T10:42:00.180Z,24.33
2018-05-13T10:43:02.816Z,23.50
2018-05-13T10:44:05.332Z,24.33
2018-05-13T10:45:07.870Z,24.27
2018-05-13T10:46:10.440Z,24.20
2018-05-13T10:47:13.022Z,25.50
2018-05-13T10:48:15.528Z,26.53
2018-05-13T10:49:18.044Z,24.70
2018-05-13T10:50:20.705Z,25.43
2018-05-13T10:51:23.232Z,25.93
2018-05-13T10:52:25.745Z,25.93
2018-05-13T10:53:28.321Z,26.27
2018-05-13T10:54:30.904Z,25.93
2018-05-13T10:55:33.467Z,24.27
2018-05-13T10:56:36.036Z,25.30
2018-05-13T10:57:38.563Z,23.27
2018-05-13T10:58:41.103Z,24.30
2018-05-13T10:59:43.616Z,24.80
2018-05-13T11:00:46.150Z,24.80
2018-05-13T11:01:48.679Z,24.77
2018-05-13T11:02:51.964Z,20.30
2018-05-13T11:03:55.245Z,24.60
2018-05-13T11:04:58.532Z,21.13
2018-05-13T11:06:01.056Z,20.00
2018-05-13T11:07:03.608Z,21.80
2018-05-13T11:08:06.391Z,20.77
2018-05-13T11:09:08.914Z,21.80
2018-05-13T11:10:12.299Z,22.33
2018-05-13T11:11:14.769Z,20.80
2018-05-13T11:12:17.274Z,22.40
2018-05-13T11:13:19.795Z,22.30
2018-05-13T11:14:23.236Z,21.23
2018-05-13T11:15:25.798Z,21.40
2018-05-13T11:16:28.373Z,22.77
2018-05-13T11:17:31.031Z,20.10
2018-05-13T11:18:33.724Z,19.40
2018-05-13T11:19:36.249Z,19.63
2018-05-13T11:20:38.807Z,20.00
2018-05-13T11:21:41.368Z,20.10
2018-05-13T11:22:43.889Z,18.20
2018-05-13T11:23:47.259Z,21.00
2018-05-13T11:24:49.774Z,19.50
2018-05-13T11:25:52.337Z,20.40
2018-05-13T11:26:54.961Z,24.80
2018-05-13T11:27:58.202Z,18.80
2018-05-13T11:29:00.719Z,20.63
2018-05-13T11:30:03.263Z,19.33
2018-05-13T11:31:05.803Z,20.50
2018-05-13T11:32:09.078Z,21.80
2018-05-13T11:33:11.595Z,21.40
2018-05-13T11:34:14.102Z,22.03
2018-05-13T11:35:16.799Z,21.67
2018-05-13T11:36:20.111Z,23.00
2018-05-13T11:37:22.621Z,24.70
2018-05-13T11:38:25.131Z,24.80
2018-05-13T11:39:28.425Z,24.07
2018-05-13T11:40:31.698Z,23.70
2018-05-13T11:41:34.247Z,23.10
2018-05-13T11:42:36.756Z,23.57
2018-05-13T11:43:40.057Z,22.30
2018-05-13T11:44:42.594Z,21.80
2018-05-13T11:45:45.120Z,18.33
2018-05-13T11:46:47.721Z,19.93
2018-05-13T11:47:50.179Z,19.53
2018-05-13T11:48:52.702Z,22.23
2018-05-13T11:49:55.999Z,21.20
2018-05-13T11:50:58.523Z,21.57
2018-05-13T11:52:02.560Z,20.23
2018-05-13T11:53:05.151Z,20.43
2018-05-13T11:54:07.683Z,22.70
2018-05-13T11:55:11.040Z,23.63
2018-05-13T11:56:13.576Z,19.17
2018-05-13T11:57:16.104Z,24.17
2018-05-13T11:58:18.604Z,22.47
2018-05-13T11:59:21.889Z,23.63
2018-05-13T12:00:25.171Z,24.90
2018-05-13T12:01:27.682Z,24.73
2018-05-13T12:02:30.293Z,24.33
2018-05-13T12:03:32.785Z,21.73
2018-05-13T12:04:36.078Z,22.73
2018-05-13T12:05:39.352Z,19.40
2018-05-13T12:06:41.867Z,20.00
2018-05-13T12:07:44.413Z,19.80
2018-05-13T12:08:47.695Z,20.20
2018-05-13T12:09:50.983Z,20.47
2018-05-13T12:10:54.270Z,20.27
2018-05-13T12:11:57.558Z,22.23
2018-05-13T12:13:00.878Z,24.00
2018-05-13T12:14:03.419Z,29.90
2018-05-13T12:15:06.810Z,29.10
2018-05-13T12:16:09.241Z,31.70
2018-05-13T12:17:11.795Z,30.93
2018-05-13T12:18:14.332Z,35.57
2018-05-13T12:19:17.605Z,38.40
2018-05-13T12:20:20.902Z,37.00
2018-05-13T12:21:24.168Z,37.57
2018-05-13T12:22:26.720Z,36.63
2018-05-13T12:23:29.231Z,39.10
2018-05-13T12:24:32.557Z,37.67
2018-05-13T12:25:35.093Z,35.30
2018-05-13T12:26:38.381Z,37.03
2018-05-13T12:27:41.672Z,37.10
2018-05-13T12:28:44.992Z,38.80
2018-05-13T12:29:47.480Z,39.57
2018-05-13T12:30:50.004Z,38.00
2018-05-13T12:31:52.535Z,39.83
2018-05-13T12:32:55.102Z,37.70
2018-05-13T12:33:57.645Z,38.20
2018-05-13T12:35:00.172Z,38.60
2018-05-13T12:36:03.479Z,40.73
2018-05-13T12:37:06.063Z,37.37
2018-05-13T12:38:08.650Z,36.90
2018-05-13T12:39:11.931Z,36.93
2018-05-13T12:40:14.458Z,36.57
2018-05-13T12:41:17.734Z,35.77
2018-05-13T12:42:20.247Z,33.03
2018-05-13T12:43:22.769Z,34.10
2018-05-13T12:44:25.293Z,36.67
2018-05-13T12:45:27.836Z,34.60
2018-05-13T12:46:31.256Z,35.10
2018-05-13T12:47:33.838Z,34.70
2018-05-13T12:48:36.386Z,35.13
2018-05-13T12:49:39.684Z,33.17
2018-05-13T12:50:42.227Z,34.40
2018-05-13T12:51:44.774Z,32.67
2018-05-13T12:52:47.286Z,31.70
2018-05-13T12:53:50.566Z,34.90
2018-05-13T12:54:53.113Z,34.87
2018-05-13T12:55:55.736Z,32.30
2018-05-13T12:56:58.250Z,33.77
2018-05-13T12:58:00.751Z,33.87
2018-05-13T12:59:03.378Z,31.80
2018-05-13T13:00:05.930Z,36.07
2018-05-13T13:01:08.429Z,33.87
2018-05-13T13:02:11.003Z,32.80
2018-05-13T13:03:13.535Z,32.70
2018-05-13T13:04:16.046Z,33.87
2018-05-13T13:05:18.582Z,34.17
2018-05-13T13:37:14.292Z,64.70
2018-05-13T13:38:16.827Z,71.15
2018-05-13T13:39:19.331Z,76.00
2018-05-13T13:40:23.367Z,75.25
2018-05-13T13:41:25.892Z,73.50
2018-05-13T13:42:28.406Z,76.62
2018-05-13T13:43:31.732Z,76.28
2018-05-13T13:44:34.238Z,75.45
2018-05-13T13:45:36.757Z,79.40
2018-05-13T13:46:39.284Z,85.00
2018-05-13T13:47:41.810Z,85.12
2018-05-13T13:48:44.355Z,73.93
2018-05-13T13:49:47.655Z,78.82
2018-05-13T13:50:50.206Z,80.05
2018-05-13T13:51:53.467Z,76.87
2018-05-13T13:52:55.984Z,70.87
2018-05-13T13:53:58.499Z,67.65
2018-05-13T13:55:00.992Z,70.20
2018-05-13T13:56:03.495Z,74.43
2018-05-13T13:57:06.019Z,72.82
2018-05-13T13:58:08.517Z,72.10
2018-05-13T13:59:11.906Z,70.25
2018-05-13T14:00:15.188Z,70.80
2018-05-13T14:01:17.689Z,71.22
2018-05-13T14:02:20.184Z,75.60
2018-05-13T14:03:22.719Z,73.45
2018-05-13T14:04:25.975Z,79.00
2018-05-13T14:05:28.481Z,82.15
2018-05-13T14:06:31.025Z,75.90
2018-05-13T14:07:33.572Z,73.72
2018-05-13T14:08:36.118Z,76.37
2018-05-13T14:09:38.667Z,73.53
2018-05-13T14:10:42.514Z,74.28
2018-05-13T14:11:45.033Z,74.75
2018-05-13T14:12:48.279Z,79.00
2018-05-13T14:13:50.829Z,77.85
2018-05-13T14:14:53.347Z,74.55
2018-05-13T14:15:56.626Z,71.57
2018-05-13T14:16:59.116Z,66.30
2018-05-13T14:18:01.768Z,65.20
2018-05-13T14:19:04.357Z,69.60
2018-05-13T14:20:06.922Z,66.78
2018-05-13T14:21:09.394Z,68.22
2018-05-13T14:22:11.977Z,70.72
2018-05-13T14:23:15.266Z,71.87
2018-05-13T14:24:17.778Z,72.62
2018-05-13T14:25:20.272Z,70.68
2018-05-13T14:26:22.795Z,76.80
2018-05-13T14:27:26.068Z,74.68
2018-05-13T14:28:29.352Z,72.25
2018-05-13T14:29:31.899Z,65.00
2018-05-13T14:30:34.409Z,68.57
2018-05-13T14:31:37.704Z,68.18
2018-05-13T14:32:40.195Z,67.37
2018-05-13T14:33:42.697Z,66.05
2018-05-13T14:34:45.235Z,66.12
2018-05-13T14:35:47.740Z,65.35
2018-05-13T14:36:50.226Z,64.40
2018-05-13T14:37:52.725Z,66.03
2018-05-13T14:38:55.218Z,67.00
2018-05-13T14:39:57.735Z,63.85
2018-05-13T14:41:00.325Z,64.32
2018-05-13T14:42:02.920Z,69.53
2018-05-13T14:43:05.473Z,65.43
2018-05-13T14:44:08.772Z,63.17
2018-05-13T14:45:12.208Z,59.60
2018-05-13T14:46:14.724Z,65.57
2018-05-13T14:47:18.005Z,62.90
2018-05-13T14:48:20.507Z,59.60
2018-05-13T14:49:23.022Z,65.37
2018-05-13T14:50:26.292Z,58.35
2018-05-13T14:51:28.831Z,61.15
2018-05-13T14:52:31.333Z,61.13
2018-05-13T14:53:33.897Z,60.70
2018-05-13T14:54:36.404Z,61.45
2018-05-13T14:55:38.938Z,62.67
2018-05-13T14:56:41.453Z,61.35
2018-05-13T14:57:43.963Z,57.60
2018-05-13T14:58:46.460Z,58.22
2018-05-13T14:59:48.981Z,63.42
2018-05-13T15:00:52.288Z,59.25
2018-05-13T15:01:54.801Z,64.65
2018-05-13T15:02:57.367Z,61.60
2018-05-13T15:03:59.901Z,61.85
2018-05-13T15:05:02.400Z,66.95
2018-05-13T15:06:04.935Z,64.05
2018-05-13T15:07:08.216Z,65.43
2018-05-13T15:08:11.588Z,68.57
2018-05-13T15:09:14.085Z,71.35
2018-05-13T15:10:16.575Z,71.05
2018-05-13T15:11:19.104Z,68.22
2018-05-13T15:12:21.604Z,65.93
2018-05-13T15:13:24.865Z,68.62
2018-05-13T15:14:27.463Z,65.00
2018-05-13T15:15:30.724Z,68.78
2018-05-13T15:16:33.341Z,68.60
2018-05-13T15:17:35.780Z,70.00
2018-05-13T15:18:39.077Z,66.62
2018-05-13T15:19:42.360Z,66.25
2018-05-13T15:20:45.659Z,71.00
2018-05-13T15:21:48.221Z,66.22
2018-05-13T15:22:50.750Z,70.37
2018-05-13T15:23:53.275Z,66.82
2018-05-13T15:24:55.811Z,67.65
2018-05-13T15:25:58.320Z,63.30
2018-05-13T15:27:00.840Z,67.60
2018-05-13T15:28:03.420Z,67.97
2018-05-13T15:29:06.029Z,59.90
2018-05-13T15:30:09.248Z,59.88
2018-05-13T15:31:12.554Z,62.67
2018-05-13T15:32:15.057Z,61.37
2018-05-13T15:33:17.611Z,65.47
2018-05-13T15:34:20.114Z,65.18
2018-05-13T15:35:22.636Z,69.05
2018-05-13T15:36:25.131Z,66.75
2018-05-13T15:37:27.650Z,67.82
2018-05-13T15:38:30.195Z,70.32
2018-05-13T15:39:32.733Z,71.32
2018-05-13T15:40:35.234Z,67.62
2018-05-13T15:41:37.728Z,68.50
2018-05-13T15:42:40.284Z,67.50
2018-05-13T15:43:42.779Z,70.12
2018-05-13T15:44:46.036Z,73.05
2018-05-13T15:45:48.557Z,69.82
2018-05-13T15:46:51.820Z,68.80
2018-05-13T15:47:54.322Z,67.87
2018-05-13T15:48:56.864Z,73.32
2018-05-13T15:49:59.363Z,71.80
2018-05-13T15:51:01.860Z,70.75
2018-05-13T15:52:04.426Z,70.50
2018-05-13T15:53:06.954Z,71.68
2018-05-13T15:54:10.549Z,70.05
2018-05-13T15:55:13.862Z,69.25
2018-05-13T15:56:16.364Z,66.40
2018-05-13T15:57:18.841Z,61.42
2018-05-13T15:58:21.344Z,63.95
2018-05-13T15:59:24.652Z,65.55
2018-05-13T16:00:27.991Z,65.85
2018-05-13T16:01:31.175Z,60.80
2018-05-13T16:02:33.677Z,60.80
2018-05-13T16:03:37.037Z,64.62
2018-05-13T16:04:39.573Z,61.65
2018-05-13T16:05:42.093Z,62.22
2018-05-13T16:06:44.613Z,62.42
2018-05-13T16:07:47.162Z,61.88
2018-05-13T16:21:49.712Z,56.13
2018-05-13T16:22:53.098Z,56.78
2018-05-13T16:23:55.584Z,60.85
2018-05-13T16:24:58.100Z,60.70
2018-05-13T16:26:00.627Z,62.33
2018-05-13T16:27:03.126Z,60.85
2018-05-13T16:28:05.695Z,60.63
2018-05-13T16:29:08.191Z,60.40
2018-05-13T16:30:10.896Z,62.83
2018-05-13T16:31:13.500Z,63.83
2018-05-13T16:32:16.003Z,62.95
2018-05-13T16:33:18.513Z,62.88
2018-05-13T16:34:21.770Z,68.62
2018-05-13T16:35:24.304Z,70.60
2018-05-13T16:36:26.829Z,65.47
2018-05-13T16:37:29.317Z,64.43
2018-05-13T16:38:31.986Z,65.93
2018-05-13T16:39:34.553Z,66.10
2018-05-13T16:40:37.857Z,64.28
2018-05-13T16:41:40.380Z,66.95
2018-05-13T16:42:42.886Z,69.15
2018-05-13T16:43:46.163Z,63.75
2018-05-13T16:44:49.409Z,66.87
2018-05-13T16:45:51.957Z,65.90
2018-05-13T16:46:54.469Z,66.05
2018-05-13T16:47:56.972Z,62.47
2018-05-13T16:49:00.240Z,63.65
2018-05-13T16:50:02.751Z,65.35
2018-05-13T16:51:05.277Z,66.55
2018-05-13T16:52:07.796Z,64.53
2018-05-13T16:53:10.420Z,66.40
2018-05-13T16:54:12.930Z,65.30
2018-05-13T16:55:15.436Z,64.90
2018-05-13T16:56:17.994Z,61.08
2018-05-13T16:57:20.494Z,64.03
2018-05-13T16:58:23.011Z,62.42
2018-05-13T16:59:25.592Z,68.05
2018-05-13T17:00:28.067Z,61.85
2018-05-13T17:01:30.671Z,64.97
2018-05-13T17:02:33.208Z,59.17
2018-05-13T17:03:35.665Z,60.47
2018-05-13T17:04:38.931Z,62.40
2018-05-13T17:05:41.427Z,63.10
2018-05-13T17:06:43.964Z,57.05
2018-05-13T17:07:46.491Z,59.75
2018-05-13T17:08:48.984Z,58.17
2018-05-13T17:09:51.500Z,57.03
2018-05-13T17:10:54.776Z,57.10
2018-05-13T17:11:57.341Z,60.12
2018-05-13T17:12:59.867Z,59.92
2018-05-13T17:14:02.351Z,55.72
2018-05-13T17:15:04.868Z,58.65
2018-05-13T17:16:08.180Z,54.72
2018-05-13T17:17:10.851Z,54.53
2018-05-13T17:18:13.414Z,56.85
2018-05-13T17:19:15.975Z,60.67
2018-05-13T17:20:18.467Z,60.38
2018-05-13T17:21:20.981Z,59.97
2018-05-13T17:22:24.249Z,59.03
2018-05-13T17:23:26.768Z,57.53
2018-05-13T17:24:29.272Z,57.33
2018-05-13T17:25:31.778Z,58.60
2018-05-13T17:26:34.279Z,56.22
2018-05-13T17:27:36.820Z,56.50
2018-05-13T17:28:39.366Z,53.67
2018-05-13T17:29:41.882Z,56.20
2018-05-13T17:30:44.430Z,55.50
2018-05-13T17:31:46.932Z,54.60
2018-05-13T17:32:49.480Z,54.00
2018-05-13T17:33:52.031Z,54.22
2018-05-13T17:34:54.559Z,53.78
2018-05-13T17:35:57.831Z,53.95
2018-05-13T17:37:00.327Z,53.13
2018-05-13T17:38:03.644Z,54.75
2018-05-13T17:39:06.145Z,52.10
2018-05-13T17:40:08.651Z,53.38
2018-05-13T17:41:12.265Z,54.75
2018-05-13T17:42:14.952Z,51.20
2018-05-13T17:43:17.492Z,53.90
2018-05-13T17:44:20.026Z,53.05
2018-05-13T17:45:22.536Z,52.42
2018-05-13T17:46:25.044Z,52.38
2018-05-13T17:47:27.556Z,51.08
2018-05-13T17:48:30.217Z,53.50
2018-05-13T17:49:32.785Z,53.90
2018-05-13T17:50:35.279Z,51.50
2018-05-13T17:51:37.809Z,54.72
2018-05-13T17:52:40.309Z,56.88
2018-05-13T17:53:43.608Z,54.17
2018-05-13T17:54:46.128Z,56.97
2018-05-13T17:55:48.628Z,57.15